Kingsbury, Nevada
Current Conditions -  °F | °C
As of 11:53 PM on Thursday 23 Oct 2014 (Local Time) from KTVL Reporting Station
Clear Clear  
Wind Chill:   Ceiling: Unl
Heat Index:   Visibility: 10mi
Dew Point: -6°   Wind: 0mph
Humidity: 49%   Direction: NA
Pressure: 30.14"   Gusts: NA
Location:  39.0164°N, 119.925°W
Report Text: KTVL 240653Z AUTO 00000KT 10SM CLR 04/M06 A3014 RMK AO2 SLP169 T00391061
Loading
Personal Weather Stations






























Interactive Weather Map
Tropical Storm Tracking
New forecast layout! Learn more

10-Day Weather Forecast

Advertisements
Track Severe Weather on mobile